Strona główna
METAR-TAF:

METAR-TAF

Lotnisko :

Black_Hills

Spearfish, Dakota Południowa, Stany Zjednoczone

Szerokość geograficzna: 44-29N, Długość geograficzna: 103-47W, wysokość: 1188 m

Aktualna obserwacja pogody

Raport powstał 10 minut temu, godzina 06:35 UTC
Wiatr 9 kt od zachód
Temperatura 4°C
Wilgotność 52%
Ciśnienie 1009 hPa
Widzialność: 16.1 km
bezchmurnie

METAR: KSPF 130635Z AUTO 27009KT 10SM CLR 04/M05 A2981 RMK AO2

czas: 23:45 (06:45 UTC)


TAF: brakujący

Obserwacja i prognoza pogody dla ponad 4000 lotnisk (raport METAR i TAF).

Dostępne stacje oznaczono żółtymi i czerwonymi punktami na mapie.

Najedź kursorem aby zobaczyć nazwę stacji.

Kliknij aby zobaczyć obserwacje i prognozy pogody.

Aby zmienić mapę: kliknij na zielony przycisk z czarnym krzyżykiem, aby powiększyć; na zielony przycisk z myślnikiem, aby pomniejszyć; na zielone strzałki, aby przejść do map sąsiednich.


METAR-TAF: